sensor_id;sensor_type;location;lat;lon;timestamp;pressure;altitude;pressure_sealevel;temperature;humidity
47750;BME280;49810;48.160;10.812;2024-03-17T00:00:22;96004.13;;;7.71;91.11
47750;BME280;49810;48.160;10.812;2024-03-17T00:01:23;96002.81;;;7.67;92.22
47750;BME280;49810;48.160;10.812;2024-03-17T00:02:25;96014.59;;;7.75;91.74
47750;BME280;49810;48.160;10.812;2024-03-17T00:03:29;96007.25;;;7.70;91.06
47750;BME280;49810;48.160;10.812;2024-03-17T00:04:30;96013.13;;;7.74;91.28
47750;BME280;49810;48.160;10.812;2024-03-17T00:05:32;96009.94;;;7.61;90.40
47750;BME280;49810;48.160;10.812;2024-03-17T00:06:34;96007.03;;;7.59;91.18
47750;BME280;49810;48.160;10.812;2024-03-17T00:07:35;96012.22;;;7.53;91.42
47750;BME280;49810;48.160;10.812;2024-03-17T00:08:36;96015.28;;;7.61;91.14
47750;BME280;49810;48.160;10.812;2024-03-17T00:09:38;96006.94;;;7.68;91.92
47750;BME280;49810;48.160;10.812;2024-03-17T00:10:40;96007.34;;;7.75;90.77
47750;BME280;49810;48.160;10.812;2024-03-17T00:11:41;96017.16;;;7.69;90.99
47750;BME280;49810;48.160;10.812;2024-03-17T00:12:42;96002.94;;;7.72;91.46
47750;BME280;49810;48.160;10.812;2024-03-17T00:13:44;96004.78;;;7.81;90.48
47750;BME280;49810;48.160;10.812;2024-03-17T00:14:45;96005.59;;;7.72;91.11
47750;BME280;49810;48.160;10.812;2024-03-17T00:15:46;96005.28;;;7.70;90.73
47750;BME280;49810;48.160;10.812;2024-03-17T00:16:48;96003.03;;;7.78;90.88
47750;BME280;49810;48.160;10.812;2024-03-17T00:17:49;96003.09;;;7.69;90.23
47750;BME280;49810;48.160;10.812;2024-03-17T00:18:52;95997.78;;;7.69;91.31
47750;BME280;49810;48.160;10.812;2024-03-17T00:19:54;96010.19;;;7.72;90.26
47750;BME280;49810;48.160;10.812;2024-03-17T00:20:55;96004.44;;;7.64;89.85
47750;BME280;49810;48.160;10.812;2024-03-17T00:21:56;96004.44;;;7.64;90.58
47750;BME280;49810;48.160;10.812;2024-03-17T00:22:58;96003.81;;;7.69;90.49
47750;BME280;49810;48.160;10.812;2024-03-17T00:23:59;95999.69;;;7.68;90.72
47750;BME280;49810;48.160;10.812;2024-03-17T00:25:01;96004.84;;;7.72;90.84
47750;BME280;49810;48.160;10.812;2024-03-17T00:26:02;95978.06;;;7.52;90.57
47750;BME280;49810;48.160;10.812;2024-03-17T00:27:04;96001.53;;;7.62;90.24
47750;BME280;49810;48.160;10.812;2024-03-17T00:28:06;95994.16;;;7.57;90.39
47750;BME280;49810;48.160;10.812;2024-03-17T00:29:09;95982.66;;;7.51;90.51
47750;BME280;49810;48.160;10.812;2024-03-17T00:30:12;95987.41;;;7.47;90.05
47750;BME280;49810;48.160;10.812;2024-03-17T00:31:13;95981.88;;;7.36;89.41
47750;BME280;49810;48.160;10.812;2024-03-17T00:32:15;95984.22;;;7.34;89.01
47750;BME280;49810;48.160;10.812;2024-03-17T00:33:16;95979.41;;;7.24;88.68
47750;BME280;49810;48.160;10.812;2024-03-17T00:34:21;95981.06;;;7.21;87.61
47750;BME280;49810;48.160;10.812;2024-03-17T00:35:22;95989.47;;;7.20;87.04
47750;BME280;49810;48.160;10.812;2024-03-17T00:36:23;95989.47;;;7.20;87.45
47750;BME280;49810;48.160;10.812;2024-03-17T00:37:24;95979.13;;;7.22;87.55
47750;BME280;49810;48.160;10.812;2024-03-17T00:38:26;95978.09;;;7.19;87.08
47750;BME280;49810;48.160;10.812;2024-03-17T00:39:27;95981.94;;;7.18;86.63
47750;BME280;49810;48.160;10.812;2024-03-17T00:40:28;95981.19;;;7.18;86.44
47750;BME280;49810;48.160;10.812;2024-03-17T00:41:29;95976.91;;;7.20;85.78
47750;BME280;49810;48.160;10.812;2024-03-17T00:42:32;95980.31;;;7.21;87.10
47750;BME280;49810;48.160;10.812;2024-03-17T00:43:33;95981.94;;;7.18;86.81
47750;BME280;49810;48.160;10.812;2024-03-17T00:44:34;95979.84;;;7.22;87.10
47750;BME280;49810;48.160;10.812;2024-03-17T00:45:36;95977.47;;;7.24;86.38
47750;BME280;49810;48.160;10.812;2024-03-17T00:46:38;95978.94;;;7.25;86.54
47750;BME280;49810;48.160;10.812;2024-03-17T00:47:40;95971.22;;;7.36;86.72
47750;BME280;49810;48.160;10.812;2024-03-17T00:48:41;95977.09;;;7.40;88.20
47750;BME280;49810;48.160;10.812;2024-03-17T00:49:44;95973.47;;;7.29;86.87
47750;BME280;49810;48.160;10.812;2024-03-17T00:50:46;95971.44;;;7.24;85.53
47750;BME280;49810;48.160;10.812;2024-03-17T00:51:47;95974.22;;;7.20;85.52
47750;BME280;49810;48.160;10.812;2024-03-17T00:52:50;95973.78;;;7.22;85.19
47750;BME280;49810;48.160;10.812;2024-03-17T00:53:52;95977.91;;;7.23;86.08
47750;BME280;49810;48.160;10.812;2024-03-17T00:54:53;95976.19;;;7.20;84.89
47750;BME280;49810;48.160;10.812;2024-03-17T00:55:55;95973.53;;;7.20;85.49
47750;BME280;49810;48.160;10.812;2024-03-17T00:56:58;95972.06;;;7.19;86.11
47750;BME280;49810;48.160;10.812;2024-03-17T00:57:59;95979.84;;;7.22;85.53
47750;BME280;49810;48.160;10.812;2024-03-17T00:59:00;95974.53;;;7.22;85.08
47750;BME280;49810;48.160;10.812;2024-03-17T01:00:03;95973.06;;;7.21;86.51
47750;BME280;49810;48.160;10.812;2024-03-17T01:01:04;95977.88;;;7.32;86.58
47750;BME280;49810;48.160;10.812;2024-03-17T01:02:05;95973.41;;;7.38;87.51
47750;BME280;49810;48.160;10.812;2024-03-17T01:03:06;95975.91;;;7.41;87.03
47750;BME280;49810;48.160;10.812;2024-03-17T01:04:08;95976.38;;;7.40;88.09
47750;BME280;49810;48.160;10.812;2024-03-17T01:05:10;95966.50;;;7.31;88.10
47750;BME280;49810;48.160;10.812;2024-03-17T01:06:12;95969.78;;;7.26;87.23
47750;BME280;49810;48.160;10.812;2024-03-17T01:07:13;95963.44;;;7.24;86.68
47750;BME280;49810;48.160;10.812;2024-03-17T01:08:15;95967.28;;;7.23;87.53
47750;BME280;49810;48.160;10.812;2024-03-17T01:09:16;95958.28;;;7.20;86.91
47750;BME280;49810;48.160;10.812;2024-03-17T01:10:17;95968.19;;;7.20;87.96
47750;BME280;49810;48.160;10.812;2024-03-17T01:11:20;95975.44;;;7.19;88.37
47750;BME280;49810;48.160;10.812;2024-03-17T01:12:21;95968.38;;;7.16;87.79
47750;BME280;49810;48.160;10.812;2024-03-17T01:13:22;95971.47;;;7.15;87.16
47750;BME280;49810;48.160;10.812;2024-03-17T01:14:23;95966.59;;;7.13;88.34
47750;BME280;49810;48.160;10.812;2024-03-17T01:15:25;95963.19;;;7.13;87.99
47750;BME280;49810;48.160;10.812;2024-03-17T01:16:26;95970.16;;;7.10;88.60
47750;BME280;49810;48.160;10.812;2024-03-17T01:17:27;95966.59;;;7.13;88.64
47750;BME280;49810;48.160;10.812;2024-03-17T01:18:30;95962.03;;;7.14;88.64
47750;BME280;49810;48.160;10.812;2024-03-17T01:19:33;95965.13;;;7.12;88.85
47750;BME280;49810;48.160;10.812;2024-03-17T01:20:36;95960.53;;;7.13;88.96
47750;BME280;49810;48.160;10.812;2024-03-17T01:21:38;95969.09;;;7.17;89.13
47750;BME280;49810;48.160;10.812;2024-03-17T01:22:40;95970.72;;;7.14;89.89
47750;BME280;49810;48.160;10.812;2024-03-17T01:23:41;95970.91;;;7.11;89.64
47750;BME280;49810;48.160;10.812;2024-03-17T01:24:42;95968.25;;;7.11;89.82
47750;BME280;49810;48.160;10.812;2024-03-17T01:25:46;95966.03;;;7.09;89.77
47750;BME280;49810;48.160;10.812;2024-03-17T01:26:48;95964.09;;;7.10;89.98
47750;BME280;49810;48.160;10.812;2024-03-17T01:27:50;95959.50;;;7.10;89.65
47750;BME280;49810;48.160;10.812;2024-03-17T01:28:51;95953.75;;;7.12;90.41
47750;BME280;49810;48.160;10.812;2024-03-17T01:29:53;95949.94;;;7.04;90.16
47750;BME280;49810;48.160;10.812;2024-03-17T01:30:54;95950.63;;;7.13;89.84
47750;BME280;49810;48.160;10.812;2024-03-17T01:31:55;95966.88;;;7.15;89.74
47750;BME280;49810;48.160;10.812;2024-03-17T01:32:56;95954.75;;;7.14;90.28
47750;BME280;49810;48.160;10.812;2024-03-17T01:34:00;95954.31;;;7.16;89.34
47750;BME280;49810;48.160;10.812;2024-03-17T01:35:02;95957.44;;;7.14;89.73
47750;BME280;49810;48.160;10.812;2024-03-17T01:36:06;95957.44;;;7.14;90.27
47750;BME280;49810;48.160;10.812;2024-03-17T01:37:07;95952.28;;;7.11;89.92
47750;BME280;49810;48.160;10.812;2024-03-17T01:38:09;95950.63;;;7.13;89.80
47750;BME280;49810;48.160;10.812;2024-03-17T01:39:11;95951.81;;;7.12;89.70
47750;BME280;49810;48.160;10.812;2024-03-17T01:40:12;95942.66;;;7.13;90.22
47750;BME280;49810;48.160;10.812;2024-03-17T01:41:14;95942.22;;;7.15;90.21
47750;BME280;49810;48.160;10.812;2024-03-17T01:42:15;95944.13;;;7.14;88.77
47750;BME280;49810;48.160;10.812;2024-03-17T01:43:16;95938.06;;;7.14;89.00
47750;BME280;49810;48.160;10.812;2024-03-17T01:44:27;95946.34;;;7.16;88.87
47750;BME280;49810;48.160;10.812;2024-03-17T01:45:29;95937.34;;;7.13;89.09
47750;BME280;49810;48.160;10.812;2024-03-17T01:46:32;95939.72;;;7.11;89.20
47750;BME280;49810;48.160;10.812;2024-03-17T01:47:33;95936.31;;;7.11;88.74
47750;BME280;49810;48.160;10.812;2024-03-17T01:48:35;95937.50;;;7.10;89.77
47750;BME280;49810;48.160;10.812;2024-03-17T01:49:37;95940.16;;;7.10;89.84
47750;BME280;49810;48.160;10.812;2024-03-17T01:50:38;95931.19;;;6.98;89.88
47750;BME280;49810;48.160;10.812;2024-03-17T01:51:42;95931.16;;;7.07;90.18
47750;BME280;49810;48.160;10.812;2024-03-17T01:52:43;95945.66;;;7.06;90.57
47750;BME280;49810;48.160;10.812;2024-03-17T01:53:45;95939.31;;;7.04;90.00
47750;BME280;49810;48.160;10.812;2024-03-17T01:54:47;95937.81;;;7.03;90.15
47750;BME280;49810;48.160;10.812;2024-03-17T01:55:49;95939.47;;;7.00;90.51
47750;BME280;49810;48.160;10.812;2024-03-17T01:56:50;95930.19;;;6.96;90.30
47750;BME280;49810;48.160;10.812;2024-03-17T01:57:51;95934.47;;;6.93;90.49
47750;BME280;49810;48.160;10.812;2024-03-17T01:58:54;95920.94;;;6.82;91.24
47750;BME280;49810;48.160;10.812;2024-03-17T01:59:55;95930.53;;;6.89;90.76
47750;BME280;49810;48.160;10.812;2024-03-17T02:00:57;95931.84;;;6.84;91.02
47750;BME280;49810;48.160;10.812;2024-03-17T02:01:58;95922.00;;;6.76;90.63
47750;BME280;49810;48.160;10.812;2024-03-17T02:03:00;95928.50;;;6.75;90.67
47750;BME280;49810;48.160;10.812;2024-03-17T02:04:01;95916.84;;;6.72;91.14
47750;BME280;49810;48.160;10.812;2024-03-17T02:05:02;95923.81;;;6.70;91.69
47750;BME280;49810;48.160;10.812;2024-03-17T02:06:04;95918.00;;;6.71;91.80
47750;BME280;49810;48.160;10.812;2024-03-17T02:07:08;95921.59;;;6.68;91.71
47750;BME280;49810;48.160;10.812;2024-03-17T02:08:10;95923.50;;;6.68;91.98
47750;BME280;49810;48.160;10.812;2024-03-17T02:09:11;95922.47;;;6.65;91.72
47750;BME280;49810;48.160;10.812;2024-03-17T02:10:13;95920.72;;;6.62;91.79
47750;BME280;49810;48.160;10.812;2024-03-17T02:11:24;95923.09;;;6.60;92.19
47750;BME280;49810;48.160;10.812;2024-03-17T02:12:26;95920.16;;;6.58;91.48
47750;BME280;49810;48.160;10.812;2024-03-17T02:13:27;95929.00;;;6.55;91.93
47750;BME280;49810;48.160;10.812;2024-03-17T02:14:28;95916.91;;;6.54;92.46
47750;BME280;49810;48.160;10.812;2024-03-17T02:15:30;95913.22;;;6.52;91.88
47750;BME280;49810;48.160;10.812;2024-03-17T02:16:31;95916.31;;;6.50;92.24
47750;BME280;49810;48.160;10.812;2024-03-17T02:17:32;95913.38;;;6.48;92.18
47750;BME280;49810;48.160;10.812;2024-03-17T02:18:33;95912.94;;;6.50;92.79
47750;BME280;49810;48.160;10.812;2024-03-17T02:19:35;95912.94;;;6.50;92.30
47750;BME280;49810;48.160;10.812;2024-03-17T02:20:36;95925.03;;;6.51;92.38
47750;BME280;49810;48.160;10.812;2024-03-17T02:21:56;95908.34;;;6.50;92.42
47750;BME280;49810;48.160;10.812;2024-03-17T02:22:59;95903.03;;;6.50;92.86
47750;BME280;49810;48.160;10.812;2024-03-17T02:24:01;95908.34;;;6.50;92.33
47750;BME280;49810;48.160;10.812;2024-03-17T02:25:02;95912.19;;;6.49;93.31
47750;BME280;49810;48.160;10.812;2024-03-17T02:26:04;95905.69;;;6.50;92.54
47750;BME280;49810;48.160;10.812;2024-03-17T02:27:05;95913.66;;;6.50;92.87
47750;BME280;49810;48.160;10.812;2024-03-17T02:28:07;95909.97;;;6.48;93.02
47750;BME280;49810;48.160;10.812;2024-03-17T02:29:08;95895.09;;;6.41;93.13
47750;BME280;49810;48.160;10.812;2024-03-17T02:30:10;95904.38;;;6.46;93.46
47750;BME280;49810;48.160;10.812;2024-03-17T02:31:13;95904.09;;;6.44;93.52
47750;BME280;49810;48.160;10.812;2024-03-17T02:32:15;95904.84;;;6.44;92.77
47750;BME280;49810;48.160;10.812;2024-03-17T02:33:16;95909.41;;;6.44;92.73
47750;BME280;49810;48.160;10.812;2024-03-17T02:34:17;95903.06;;;6.41;92.64
47750;BME280;49810;48.160;10.812;2024-03-17T02:35:19;95914.16;;;6.40;92.55
47750;BME280;49810;48.160;10.812;2024-03-17T02:36:21;95905.16;;;6.37;92.59
47750;BME280;49810;48.160;10.812;2024-03-17T02:37:22;95890.28;;;6.22;92.58
47750;BME280;49810;48.160;10.812;2024-03-17T02:38:25;95907.69;;;6.32;93.06
47750;BME280;49810;48.160;10.812;2024-03-17T02:39:41;95903.72;;;6.27;92.60
47750;BME280;49810;48.160;10.812;2024-03-17T02:40:43;95909.47;;;6.26;92.94
47750;BME280;49810;48.160;10.812;2024-03-17T02:41:44;95908.44;;;6.23;92.69
47750;BME280;49810;48.160;10.812;2024-03-17T02:42:46;95912.28;;;6.22;92.74
47750;BME280;49810;48.160;10.812;2024-03-17T02:43:48;95907.84;;;6.19;93.47
47750;BME280;49810;48.160;10.812;2024-03-17T02:44:50;95903.91;;;6.15;93.05
47750;BME280;49810;48.160;10.812;2024-03-17T02:45:51;95908.19;;;6.12;93.92
47750;BME280;49810;48.160;10.812;2024-03-17T02:46:52;95910.84;;;6.12;93.58
47750;BME280;49810;48.160;10.812;2024-03-17T02:47:54;95909.06;;;6.09;93.70
47750;BME280;49810;48.160;10.812;2024-03-17T02:48:56;95910.25;;;6.08;93.66
47750;BME280;49810;48.160;10.812;2024-03-17T02:49:57;95916.00;;;6.07;93.71
47750;BME280;49810;48.160;10.812;2024-03-17T02:50:59;95903.47;;;6.07;94.10
47750;BME280;49810;48.160;10.812;2024-03-17T02:52:00;95905.66;;;6.09;93.81
47750;BME280;49810;48.160;10.812;2024-03-17T02:53:02;95906.84;;;6.08;94.05
47750;BME280;49810;48.160;10.812;2024-03-17T02:54:05;95907.59;;;6.08;93.71
47750;BME280;49810;48.160;10.812;2024-03-17T02:55:06;95903.47;;;6.07;94.09
47750;BME280;49810;48.160;10.812;2024-03-17T02:56:09;95907.16;;;6.10;94.32
47750;BME280;49810;48.160;10.812;2024-03-17T02:57:09;95896.22;;;6.08;94.58
47750;BME280;49810;48.160;10.812;2024-03-17T02:58:12;95902.72;;;6.07;94.76
47750;BME280;49810;48.160;10.812;2024-03-17T02:59:13;95897.41;;;6.07;93.89
47750;BME280;49810;48.160;10.812;2024-03-17T03:00:14;95881.19;;;5.96;94.21
47750;BME280;49810;48.160;10.812;2024-03-17T03:01:16;95903.00;;;6.09;93.87
47750;BME280;49810;48.160;10.812;2024-03-17T03:02:18;95900.06;;;6.07;94.01
47750;BME280;49810;48.160;10.812;2024-03-17T03:03:20;95887.53;;;6.07;94.02
47750;BME280;49810;48.160;10.812;2024-03-17T03:04:21;95893.28;;;6.06;94.92
47750;BME280;49810;48.160;10.812;2024-03-17T03:05:22;95887.38;;;6.02;93.88
47750;BME280;49810;48.160;10.812;2024-03-17T03:06:24;95889.28;;;6.01;94.01
47750;BME280;49810;48.160;10.812;2024-03-17T03:07:26;95886.06;;;5.97;94.20
47750;BME280;49810;48.160;10.812;2024-03-17T03:08:28;95878.72;;;5.92;94.36
47750;BME280;49810;48.160;10.812;2024-03-17T03:09:31;95879.59;;;5.89;94.10
47750;BME280;49810;48.160;10.812;2024-03-17T03:10:33;95887.72;;;5.86;93.86
47750;BME280;49810;48.160;10.812;2024-03-17T03:11:36;95883.88;;;5.87;94.54
47750;BME280;49810;48.160;10.812;2024-03-17T03:12:38;95885.78;;;5.77;94.09
47750;BME280;49810;48.160;10.812;2024-03-17T03:13:39;95888.56;;;5.73;94.42
47750;BME280;49810;48.160;10.812;2024-03-17T03:14:42;95889.75;;;5.72;95.09
47750;BME280;49810;48.160;10.812;2024-03-17T03:15:43;95882.81;;;5.75;94.82
47750;BME280;49810;48.160;10.812;2024-03-17T03:16:45;95883.41;;;5.79;94.61
47750;BME280;49810;48.160;10.812;2024-03-17T03:17:46;95884.59;;;5.78;95.10
47750;BME280;49810;48.160;10.812;2024-03-17T03:18:50;95873.22;;;5.68;95.38
47750;BME280;49810;48.160;10.812;2024-03-17T03:19:51;95885.34;;;5.70;95.02
47750;BME280;49810;48.160;10.812;2024-03-17T03:20:53;95880.31;;;5.72;94.97
47750;BME280;49810;48.160;10.812;2024-03-17T03:21:54;95880.03;;;5.70;95.16
47750;BME280;49810;48.160;10.812;2024-03-17T03:22:57;95882.69;;;5.70;95.32
47750;BME280;49810;48.160;10.812;2024-03-17T03:23:58;95886.81;;;5.71;95.46
47750;BME280;49810;48.160;10.812;2024-03-17T03:25:01;95882.97;;;5.72;95.33
47750;BME280;49810;48.160;10.812;2024-03-17T03:26:04;95891.22;;;5.73;95.32
47750;BME280;49810;48.160;10.812;2024-03-17T03:27:06;95885.91;;;5.73;95.13
47750;BME280;49810;48.160;10.812;2024-03-17T03:28:07;95884.28;;;5.76;95.79
47750;BME280;49810;48.160;10.812;2024-03-17T03:29:10;95885.78;;;5.77;95.62
47750;BME280;49810;48.160;10.812;2024-03-17T03:30:12;95878.84;;;5.80;95.60
47750;BME280;49810;48.160;10.812;2024-03-17T03:31:16;95881.50;;;5.80;95.22
47750;BME280;49810;48.160;10.812;2024-03-17T03:32:17;95880.63;;;5.83;95.62
47750;BME280;49810;48.160;10.812;2024-03-17T03:33:18;95881.66;;;5.85;95.64
47750;BME280;49810;48.160;10.812;2024-03-17T03:34:20;95883.13;;;5.86;95.81
47750;BME280;49810;48.160;10.812;2024-03-17T03:35:21;95886.38;;;5.90;95.99
47750;BME280;49810;48.160;10.812;2024-03-17T03:36:23;95891.50;;;5.94;95.91
47750;BME280;49810;48.160;10.812;2024-03-17T03:37:24;95890.91;;;5.99;95.89
47750;BME280;49810;48.160;10.812;2024-03-17T03:38:26;95890.78;;;6.02;95.43
47750;BME280;49810;48.160;10.812;2024-03-17T03:39:29;95898.59;;;6.06;95.44
47750;BME280;49810;48.160;10.812;2024-03-17T03:40:34;95891.34;;;6.06;95.62
47750;BME280;49810;48.160;10.812;2024-03-17T03:41:35;95880.72;;;6.06;95.68
47750;BME280;49810;48.160;10.812;2024-03-17T03:42:37;95887.06;;;6.09;95.90
47750;BME280;49810;48.160;10.812;2024-03-17T03:43:38;95890.03;;;6.11;95.51
47750;BME280;49810;48.160;10.812;2024-03-17T03:44:39;95882.06;;;6.11;95.37
47750;BME280;49810;48.160;10.812;2024-03-17T03:45:42;95885.91;;;6.10;95.42
47750;BME280;49810;48.160;10.812;2024-03-17T03:46:44;95881.91;;;6.14;95.26
47750;BME280;49810;48.160;10.812;2024-03-17T03:47:47;95877.59;;;6.17;94.80
47750;BME280;49810;48.160;10.812;2024-03-17T03:48:48;95882.47;;;6.18;95.23
47750;BME280;49810;48.160;10.812;2024-03-17T03:49:52;95878.34;;;6.17;94.75
47750;BME280;49810;48.160;10.812;2024-03-17T03:50:53;95883.19;;;6.19;95.27
47750;BME280;49810;48.160;10.812;2024-03-17T03:51:55;95885.56;;;6.17;95.52
47750;BME280;49810;48.160;10.812;2024-03-17T03:52:57;95882.91;;;6.17;95.25
47750;BME280;49810;48.160;10.812;2024-03-17T03:53:58;95890.44;;;6.18;94.65
47750;BME280;49810;48.160;10.812;2024-03-17T03:55:00;95882.66;;;6.15;94.83
47750;BME280;49810;48.160;10.812;2024-03-17T03:56:05;95886.78;;;6.16;94.72
47750;BME280;49810;48.160;10.812;2024-03-17T03:57:06;95886.78;;;6.16;95.06
47750;BME280;49810;48.160;10.812;2024-03-17T03:58:09;95882.16;;;6.16;94.76
47750;BME280;49810;48.160;10.812;2024-03-17T03:59:10;95878.78;;;6.16;95.16
47750;BME280;49810;48.160;10.812;2024-03-17T04:00:13;95881.16;;;6.14;94.58
47750;BME280;49810;48.160;10.812;2024-03-17T04:01:14;95879.69;;;6.13;94.47
47750;BME280;49810;48.160;10.812;2024-03-17T04:02:22;95880.28;;;6.08;94.42
47750;BME280;49810;48.160;10.812;2024-03-17T04:03:23;95876.91;;;6.07;94.46
47750;BME280;49810;48.160;10.812;2024-03-17T04:04:26;95871.59;;;6.07;94.40
47750;BME280;49810;48.160;10.812;2024-03-17T04:05:27;95873.22;;;6.05;94.53
47750;BME280;49810;48.160;10.812;2024-03-17T04:06:29;95870.56;;;6.05;94.17
47750;BME280;49810;48.160;10.812;2024-03-17T04:07:30;95873.34;;;6.01;94.05
47750;BME280;49810;48.160;10.812;2024-03-17T04:08:31;95869.41;;;5.97;93.91
47750;BME280;49810;48.160;10.812;2024-03-17T04:09:33;95867.34;;;5.92;93.93
47750;BME280;49810;48.160;10.812;2024-03-17T04:10:35;95875.75;;;5.90;94.11
47750;BME280;49810;48.160;10.812;2024-03-17T04:11:37;95873.25;;;5.87;94.52
47750;BME280;49810;48.160;10.812;2024-03-17T04:12:40;95866.72;;;5.78;94.69
47750;BME280;49810;48.160;10.812;2024-03-17T04:13:41;95871.75;;;5.77;94.42
47750;BME280;49810;48.160;10.812;2024-03-17T04:14:43;95876.47;;;5.72;94.08
47750;BME280;49810;48.160;10.812;2024-03-17T04:15:45;95875.44;;;5.70;94.60
47750;BME280;49810;48.160;10.812;2024-03-17T04:16:47;95871.03;;;5.67;94.79
47750;BME280;49810;48.160;10.812;2024-03-17T04:17:48;95872.78;;;5.61;94.29
47750;BME280;49810;48.160;10.812;2024-03-17T04:18:49;95870.28;;;5.57;94.36
47750;BME280;49810;48.160;10.812;2024-03-17T04:19:52;95869.69;;;5.53;94.89
47750;BME280;49810;48.160;10.812;2024-03-17T04:20:53;95871.31;;;5.51;94.76
47750;BME280;49810;48.160;10.812;2024-03-17T04:21:57;95872.50;;;5.50;94.66
47750;BME280;49810;48.160;10.812;2024-03-17T04:22:58;95858.66;;;5.37;94.55
47750;BME280;49810;48.160;10.812;2024-03-17T04:24:00;95872.38;;;5.45;94.49
47750;BME280;49810;48.160;10.812;2024-03-17T04:25:01;95877.69;;;5.45;94.80
47750;BME280;49810;48.160;10.812;2024-03-17T04:26:04;95878.13;;;5.43;94.60
47750;BME280;49810;48.160;10.812;2024-03-17T04:27:09;95877.22;;;5.46;94.77
47750;BME280;49810;48.160;10.812;2024-03-17T04:28:10;95870.00;;;5.47;95.38
47750;BME280;49810;48.160;10.812;2024-03-17T04:29:12;95872.22;;;5.48;95.44
47750;BME280;49810;48.160;10.812;2024-03-17T04:30:13;95869.56;;;5.48;95.36
47750;BME280;49810;48.160;10.812;2024-03-17T04:31:15;95869.56;;;5.48;95.09
47750;BME280;49810;48.160;10.812;2024-03-17T04:32:17;95871.19;;;5.46;95.26
47750;BME280;49810;48.160;10.812;2024-03-17T04:33:18;95868.53;;;5.46;95.27
47750;BME280;49810;48.160;10.812;2024-03-17T04:34:19;95874.56;;;5.46;95.14
47750;BME280;49810;48.160;10.812;2024-03-17T04:35:21;95872.66;;;5.47;95.65
47750;BME280;49810;48.160;10.812;2024-03-17T04:36:22;95866.16;;;5.47;95.38
47750;BME280;49810;48.160;10.812;2024-03-17T04:37:25;95870.28;;;5.48;95.43
47750;BME280;49810;48.160;10.812;2024-03-17T04:38:26;95868.09;;;5.47;95.83
47750;BME280;49810;48.160;10.812;2024-03-17T04:39:28;95861.03;;;5.44;95.83
47750;BME280;49810;48.160;10.812;2024-03-17T04:40:29;95868.53;;;5.46;95.19
47750;BME280;49810;48.160;10.812;2024-03-17T04:41:30;95866.59;;;5.46;95.39
47750;BME280;49810;48.160;10.812;2024-03-17T04:42:34;95866.59;;;5.46;95.81
47750;BME280;49810;48.160;10.812;2024-03-17T04:43:35;95867.78;;;5.45;95.76
47750;BME280;49810;48.160;10.812;2024-03-17T04:44:37;95868.81;;;5.47;95.72
47750;BME280;49810;48.160;10.812;2024-03-17T04:45:38;95876.78;;;5.47;95.86
47750;BME280;49810;48.160;10.812;2024-03-17T04:46:39;95872.22;;;5.48;95.59
47750;BME280;49810;48.160;10.812;2024-03-17T04:47:42;95870.00;;;5.47;95.88
47750;BME280;49810;48.160;10.812;2024-03-17T04:48:43;95876.50;;;5.46;95.17
47750;BME280;49810;48.160;10.812;2024-03-17T04:49:44;95876.50;;;5.46;95.21
47750;BME280;49810;48.160;10.812;2024-03-17T04:50:46;95876.78;;;5.47;95.07
47750;BME280;49810;48.160;10.812;2024-03-17T04:51:47;95880.47;;;5.50;95.22
47750;BME280;49810;48.160;10.812;2024-03-17T04:52:49;95872.06;;;5.52;95.61
47750;BME280;49810;48.160;10.812;2024-03-17T04:53:51;95874.28;;;5.53;95.63
47750;BME280;49810;48.160;10.812;2024-03-17T04:54:53;95870.44;;;5.54;95.45
47750;BME280;49810;48.160;10.812;2024-03-17T04:56:00;95874.13;;;5.57;95.61
47750;BME280;49810;48.160;10.812;2024-03-17T04:57:02;95870.72;;;5.56;95.63
47750;BME280;49810;48.160;10.812;2024-03-17T04:58:06;95868.38;;;5.58;95.09
47750;BME280;49810;48.160;10.812;2024-03-17T04:59:07;95873.38;;;5.56;95.46
47750;BME280;49810;48.160;10.812;2024-03-17T05:00:09;95876.78;;;5.57;95.04
47750;BME280;49810;48.160;10.812;2024-03-17T05:01:12;95879.72;;;5.58;95.67
47750;BME280;49810;48.160;10.812;2024-03-17T05:02:13;95873.69;;;5.58;95.50
47750;BME280;49810;48.160;10.812;2024-03-17T05:03:14;95877.06;;;5.58;94.95
47750;BME280;49810;48.160;10.812;2024-03-17T05:04:17;95875.91;;;5.60;95.42
47750;BME280;49810;48.160;10.812;2024-03-17T05:05:18;95878.09;;;5.61;95.16
47750;BME280;49810;48.160;10.812;2024-03-17T05:06:20;95877.66;;;5.63;94.97
47750;BME280;49810;48.160;10.812;2024-03-17T05:07:22;95873.53;;;5.62;95.09
47750;BME280;49810;48.160;10.812;2024-03-17T05:08:24;95881.78;;;5.63;95.49
47750;BME280;49810;48.160;10.812;2024-03-17T05:09:26;95894.03;;;5.61;95.02
47750;BME280;49810;48.160;10.812;2024-03-17T05:10:28;95877.06;;;5.58;94.74
47750;BME280;49810;48.160;10.812;2024-03-17T05:11:29;95883.56;;;5.57;95.11
47750;BME280;49810;48.160;10.812;2024-03-17T05:12:31;95879.16;;;5.55;95.16
47750;BME280;49810;48.160;10.812;2024-03-17T05:13:34;95882.84;;;5.57;94.87
47750;BME280;49810;48.160;10.812;2024-03-17T05:14:36;95880.47;;;5.59;95.06
47750;BME280;49810;48.160;10.812;2024-03-17T05:15:37;95886.22;;;5.57;94.64
47750;BME280;49810;48.160;10.812;2024-03-17T05:16:38;95877.97;;;5.56;94.87
47750;BME280;49810;48.160;10.812;2024-03-17T05:17:40;95880.63;;;5.56;94.97
47750;BME280;49810;48.160;10.812;2024-03-17T05:18:42;95872.94;;;5.57;94.87
47750;BME280;49810;48.160;10.812;2024-03-17T05:19:44;95879.72;;;5.58;94.46
47750;BME280;49810;48.160;10.812;2024-03-17T05:20:45;95877.38;;;5.61;94.99
47750;BME280;49810;48.160;10.812;2024-03-17T05:21:47;95879.28;;;5.60;94.87
47750;BME280;49810;48.160;10.812;2024-03-17T05:22:49;95878.84;;;5.62;95.05
47750;BME280;49810;48.160;10.812;2024-03-17T05:23:51;95878.84;;;5.62;94.90
47750;BME280;49810;48.160;10.812;2024-03-17T05:24:52;95887.09;;;5.63;94.55
47750;BME280;49810;48.160;10.812;2024-03-17T05:25:54;95882.53;;;5.64;94.80
47750;BME280;49810;48.160;10.812;2024-03-17T05:26:56;95880.63;;;5.65;94.36
47750;BME280;49810;48.160;10.812;2024-03-17T05:27:58;95886.22;;;5.67;94.90